createdAt,value
2023-04-20T00:01:40.552Z,6.80
2023-04-20T00:04:12.702Z,7.00
2023-04-20T00:06:45.981Z,6.70
2023-04-20T00:09:18.236Z,7.10
2023-04-20T00:11:50.976Z,7.40
2023-04-20T00:14:23.155Z,6.70
2023-04-20T00:16:57.738Z,6.60
2023-04-20T00:19:33.341Z,6.60
2023-04-20T00:22:05.735Z,6.70
2023-04-20T00:24:37.799Z,6.10
2023-04-20T00:27:11.011Z,6.60
2023-04-20T00:29:43.269Z,6.10
2023-04-20T00:32:15.735Z,5.70
2023-04-20T00:34:47.712Z,5.40
2023-04-20T00:37:19.938Z,5.20
2023-04-20T00:39:51.997Z,6.40
2023-04-20T00:42:24.170Z,5.60
2023-04-20T00:44:57.307Z,6.20
2023-04-20T00:47:31.646Z,6.90
2023-04-20T00:50:04.033Z,6.90
2023-04-20T00:52:37.094Z,5.90
2023-04-20T00:55:10.744Z,5.90
2023-04-20T00:57:44.655Z,5.00
2023-04-20T01:00:17.950Z,5.90
2023-04-20T01:02:52.670Z,5.10
2023-04-20T01:05:26.236Z,5.10
2023-04-20T01:08:01.136Z,4.90
2023-04-20T01:10:34.920Z,5.50
2023-04-20T01:13:07.422Z,5.60
2023-04-20T01:15:39.607Z,5.60
2023-04-20T01:18:12.309Z,6.10
2023-04-20T01:20:44.941Z,6.80
2023-04-20T01:23:17.052Z,6.50
2023-04-20T01:25:49.683Z,6.00
2023-04-20T01:28:22.097Z,6.00
2023-04-20T01:30:54.192Z,7.00
2023-04-20T01:33:27.220Z,5.30
2023-04-20T01:35:59.669Z,4.50
2023-04-20T01:38:35.238Z,5.50
2023-04-20T01:41:09.457Z,5.10
2023-04-20T01:43:42.448Z,5.00
2023-04-20T01:46:17.603Z,5.00
2023-04-20T01:48:49.947Z,6.10
2023-04-20T01:51:22.638Z,6.40
2023-04-20T01:53:54.861Z,6.60
2023-04-20T01:56:26.942Z,6.50
2023-04-20T01:58:59.420Z,6.20
2023-04-20T02:01:32.534Z,5.80
2023-04-20T02:04:06.284Z,6.00
2023-04-20T02:06:38.912Z,5.60
2023-04-20T02:09:16.188Z,6.20
2023-04-20T02:11:48.395Z,6.30
2023-04-20T02:14:20.544Z,6.90
2023-04-20T02:16:53.538Z,6.50
2023-04-20T02:19:26.094Z,6.70
2023-04-20T02:21:58.724Z,5.30
2023-04-20T02:24:31.944Z,6.80
2023-04-20T02:27:04.159Z,7.30
2023-04-20T02:29:37.956Z,6.80
2023-04-20T02:32:10.397Z,6.80
2023-04-20T02:34:42.706Z,6.90
2023-04-20T02:37:14.666Z,6.70
2023-04-20T02:39:47.444Z,6.40
2023-04-20T02:42:19.447Z,6.40
2023-04-20T02:44:53.746Z,6.10
2023-04-20T02:47:26.126Z,7.00
2023-04-20T02:49:58.833Z,7.00
2023-04-20T02:52:30.994Z,6.70
2023-04-20T02:55:03.829Z,6.10
2023-04-20T02:57:36.530Z,7.50
2023-04-20T03:00:14.088Z,6.90
2023-04-20T03:03:01.835Z,6.70
2023-04-20T03:05:34.711Z,7.30
2023-04-20T03:08:07.472Z,6.50
2023-04-20T03:10:40.046Z,6.70
2023-04-20T03:13:24.384Z,6.60
2023-04-20T03:16:01.988Z,6.10
2023-04-20T03:18:41.495Z,6.20
2023-04-20T03:21:15.298Z,6.30
2023-04-20T03:23:48.160Z,6.50
2023-04-20T03:26:20.703Z,6.90
2023-04-20T03:29:11.834Z,7.30
2023-04-20T03:31:44.909Z,7.00
2023-04-20T03:34:17.641Z,7.50
2023-04-20T03:36:50.236Z,6.80
2023-04-20T03:39:22.388Z,6.50
2023-04-20T03:41:57.671Z,6.70
2023-04-20T03:44:33.229Z,7.20
2023-04-20T03:47:05.644Z,6.90
2023-04-20T03:49:37.715Z,6.90
2023-04-20T03:52:09.978Z,7.10
2023-04-20T03:54:42.047Z,6.90
2023-04-20T03:57:15.093Z,6.50
2023-04-20T03:59:47.559Z,6.30
2023-04-20T04:02:23.085Z,7.00
2023-04-20T04:04:55.713Z,7.00
2023-04-20T04:07:28.280Z,7.80
2023-04-20T04:10:00.516Z,7.10
2023-04-20T04:12:35.678Z,7.50
2023-04-20T04:15:10.703Z,7.80
2023-04-20T04:17:49.763Z,7.70
2023-04-20T04:20:22.212Z,7.30
2023-04-20T04:22:55.773Z,7.10
2023-04-20T04:25:38.231Z,6.80
2023-04-20T04:28:11.061Z,5.70
2023-04-20T04:30:49.012Z,7.30
2023-04-20T04:33:22.090Z,6.20
2023-04-20T04:35:55.464Z,6.60
2023-04-20T04:38:27.982Z,8.20
2023-04-20T04:41:02.759Z,7.20
2023-04-20T04:43:35.731Z,8.10
2023-04-20T04:46:16.763Z,7.40
2023-04-20T04:48:49.514Z,7.50
2023-04-20T04:51:21.524Z,7.90
2023-04-20T04:53:55.037Z,7.40
2023-04-20T04:56:27.040Z,6.10
2023-04-20T04:58:59.412Z,6.80
2023-04-20T05:01:32.262Z,7.20
2023-04-20T05:04:05.056Z,6.80
2023-04-20T05:06:37.188Z,7.00
2023-04-20T05:09:09.588Z,7.30
2023-04-20T05:11:44.438Z,7.40
2023-04-20T05:14:16.498Z,7.00
2023-04-20T05:16:48.648Z,6.30
2023-04-20T05:19:21.232Z,6.30
2023-04-20T05:21:53.610Z,6.50
2023-04-20T05:24:25.912Z,6.30
2023-04-20T05:26:58.351Z,7.30
2023-04-20T05:29:31.003Z,5.90
2023-04-20T05:32:03.255Z,6.90
2023-04-20T05:34:36.204Z,7.70
2023-04-20T05:37:09.494Z,6.70
2023-04-20T05:39:41.610Z,7.30
2023-04-20T05:42:14.648Z,7.00
2023-04-20T05:44:49.897Z,6.40
2023-04-20T05:47:22.005Z,6.90
2023-04-20T05:49:54.111Z,7.30
2023-04-20T05:52:26.318Z,7.60
2023-04-20T05:54:59.644Z,7.00
2023-04-20T05:57:32.367Z,7.50
2023-04-20T06:00:08.353Z,6.90
2023-04-20T06:02:45.525Z,6.60
2023-04-20T06:05:17.589Z,6.70
2023-04-20T06:07:54.970Z,7.30
2023-04-20T06:10:27.793Z,6.60
2023-04-20T06:13:02.448Z,6.00
2023-04-20T06:15:35.333Z,7.00
2023-04-20T06:18:07.795Z,5.70
2023-04-20T06:20:40.605Z,5.90
2023-04-20T06:23:13.048Z,6.20
2023-04-20T06:25:45.792Z,5.40
2023-04-20T06:28:18.545Z,5.80
2023-04-20T06:30:51.042Z,6.50
2023-04-20T06:33:23.217Z,5.70
2023-04-20T06:35:56.848Z,5.60
2023-04-20T06:38:31.576Z,5.20
2023-04-20T06:41:03.454Z,5.30
2023-04-20T06:43:35.752Z,5.70
2023-04-20T06:46:08.046Z,6.00
2023-04-20T06:48:40.265Z,6.20
2023-04-20T06:51:16.208Z,5.90
2023-04-20T06:53:48.383Z,5.70
2023-04-20T06:56:20.890Z,5.70
2023-04-20T06:58:53.265Z,5.40
2023-04-20T07:01:25.320Z,5.40
2023-04-20T07:03:57.785Z,5.20
2023-04-20T07:06:31.905Z,5.30
2023-04-20T07:09:04.419Z,5.50
2023-04-20T07:11:36.411Z,4.80
2023-04-20T07:14:08.419Z,4.70
2023-04-20T07:16:40.589Z,5.10
2023-04-20T07:19:12.899Z,5.40
2023-04-20T07:21:45.416Z,4.80
2023-04-20T07:24:17.731Z,4.40
2023-04-20T07:26:49.852Z,4.70
2023-04-20T07:29:21.915Z,4.90
2023-04-20T07:31:54.378Z,4.50
2023-04-20T07:34:26.698Z,4.40
2023-04-20T07:36:59.066Z,4.50
2023-04-20T07:39:33.683Z,4.20
2023-04-20T07:42:07.182Z,4.10
2023-04-20T07:44:39.590Z,4.50
2023-04-20T07:47:11.631Z,4.10
2023-04-20T07:49:44.304Z,4.70
2023-04-20T07:52:17.517Z,4.10
2023-04-20T07:54:50.157Z,3.90
2023-04-20T07:57:22.356Z,3.40
2023-04-20T07:59:54.711Z,4.10
2023-04-20T08:02:26.806Z,4.00
2023-04-20T08:04:59.893Z,4.10
2023-04-20T08:07:36.446Z,4.40
2023-04-20T08:10:10.659Z,4.50
2023-04-20T08:12:43.155Z,4.20
2023-04-20T08:15:15.649Z,4.30
2023-04-20T08:17:47.942Z,4.40
2023-04-20T08:20:20.544Z,4.50
2023-04-20T08:22:53.817Z,4.10
2023-04-20T08:25:28.189Z,3.50
2023-04-20T08:28:02.884Z,3.60
2023-04-20T08:30:36.335Z,3.50
2023-04-20T08:33:08.496Z,3.70
2023-04-20T08:35:41.197Z,4.10
2023-04-20T08:38:17.949Z,3.80
2023-04-20T08:40:52.526Z,3.50
2023-04-20T08:43:25.367Z,3.70
2023-04-20T08:46:01.855Z,3.10
2023-04-20T08:48:37.334Z,3.10
2023-04-20T08:51:09.587Z,2.80
2023-04-20T08:53:41.667Z,3.10
2023-04-20T08:56:14.243Z,3.20
2023-04-20T08:58:47.466Z,3.40
2023-04-20T09:01:35.548Z,3.10
2023-04-20T09:04:18.798Z,3.20
2023-04-20T09:06:52.418Z,3.20
2023-04-20T09:09:27.191Z,2.90
2023-04-20T09:12:05.460Z,3.20
2023-04-20T09:14:48.197Z,3.00
2023-04-20T09:17:32.245Z,3.10
2023-04-20T09:20:05.421Z,3.00
2023-04-20T09:22:38.926Z,3.00
2023-04-20T09:25:19.404Z,3.20
2023-04-20T09:28:02.573Z,2.70
2023-04-20T09:30:42.415Z,2.40
2023-04-20T09:33:15.740Z,2.80
2023-04-20T09:35:48.322Z,3.20
2023-04-20T09:38:28.342Z,2.80
2023-04-20T09:41:02.292Z,2.50
2023-04-20T09:43:36.473Z,2.70
2023-04-20T09:46:08.876Z,2.60
2023-04-20T09:48:40.990Z,2.10
2023-04-20T09:51:13.979Z,3.10
2023-04-20T09:53:51.681Z,2.40
2023-04-20T09:56:25.917Z,2.70
2023-04-20T09:58:58.903Z,2.20
2023-04-20T10:01:36.471Z,2.30
2023-04-20T10:04:14.949Z,2.40
2023-04-20T10:06:58.370Z,2.40
2023-04-20T10:09:33.584Z,3.00
2023-04-20T10:12:14.017Z,1.80
2023-04-20T10:14:56.083Z,2.60
2023-04-20T10:17:36.179Z,2.60
2023-04-20T10:20:21.661Z,2.40
2023-04-20T10:23:09.767Z,2.50
2023-04-20T10:28:12.772Z,2.60
2023-04-20T10:30:54.784Z,2.30
2023-04-20T10:33:26.873Z,2.30
2023-04-20T10:35:59.507Z,2.30
2023-04-20T10:38:36.728Z,2.10
2023-04-20T10:41:13.444Z,2.20
2023-04-20T10:43:46.502Z,2.30
2023-04-20T10:46:22.222Z,2.20
2023-04-20T10:48:56.528Z,2.40
2023-04-20T10:51:30.222Z,2.30
2023-04-20T10:54:07.849Z,2.40
2023-04-20T10:56:44.876Z,2.00
2023-04-20T10:59:18.482Z,2.10
2023-04-20T11:01:54.216Z,2.60
2023-04-20T11:04:37.352Z,2.00
2023-04-20T11:07:11.213Z,2.20
2023-04-20T11:09:43.655Z,2.20
2023-04-20T11:12:16.258Z,2.20
2023-04-20T11:14:56.305Z,2.20
2023-04-20T11:17:36.290Z,2.80
2023-04-20T11:20:12.311Z,2.00
2023-04-20T11:22:45.889Z,2.50
2023-04-20T11:25:18.336Z,2.50
2023-04-20T11:27:53.294Z,2.10
2023-04-20T11:30:25.659Z,2.40
2023-04-20T11:32:58.029Z,2.10
2023-04-20T11:35:37.323Z,2.40
2023-04-20T11:38:10.767Z,2.20
2023-04-20T11:40:43.557Z,2.50
2023-04-20T11:43:15.817Z,2.30
2023-04-20T11:45:48.344Z,2.20
2023-04-20T11:48:20.839Z,2.30
2023-04-20T11:50:52.838Z,2.40
2023-04-20T11:53:25.676Z,2.10
2023-04-20T11:55:57.625Z,2.50
2023-04-20T11:58:32.213Z,2.50
2023-04-20T12:01:05.000Z,2.40
2023-04-20T12:03:37.557Z,2.80
2023-04-20T12:06:10.004Z,2.10
2023-04-20T12:08:43.310Z,2.30
2023-04-20T12:11:17.825Z,2.40
2023-04-20T12:13:50.093Z,2.60
2023-04-20T12:16:22.470Z,2.40
2023-04-20T12:18:54.814Z,2.50
2023-04-20T12:21:27.570Z,2.40
2023-04-20T12:23:59.868Z,2.20
2023-04-20T12:26:38.392Z,2.30
2023-04-20T12:29:14.279Z,2.50
2023-04-20T12:31:46.771Z,2.10
2023-04-20T12:34:19.284Z,2.30
2023-04-20T12:36:51.576Z,2.40
2023-04-20T12:39:23.713Z,2.50
2023-04-20T12:41:58.656Z,2.50
2023-04-20T12:44:33.411Z,2.60
2023-04-20T12:47:08.479Z,2.40
2023-04-20T12:49:40.864Z,2.60
2023-04-20T12:52:13.263Z,2.90
2023-04-20T12:54:46.686Z,2.80
2023-04-20T12:57:18.917Z,3.00
2023-04-20T12:59:51.772Z,2.70
2023-04-20T13:02:24.405Z,2.60
2023-04-20T13:04:56.893Z,2.60
2023-04-20T13:07:31.009Z,2.80
2023-04-20T13:10:03.897Z,2.90
2023-04-20T13:12:36.133Z,2.60
2023-04-20T13:15:10.895Z,2.60
2023-04-20T13:17:42.983Z,2.50
2023-04-20T13:20:15.856Z,2.80
2023-04-20T13:22:57.604Z,2.80
2023-04-20T13:25:34.694Z,2.50
2023-04-20T13:28:07.762Z,3.00
2023-04-20T13:30:39.905Z,2.70
2023-04-20T13:33:12.104Z,3.10
2023-04-20T13:35:44.510Z,2.80
2023-04-20T13:38:18.966Z,2.90
2023-04-20T13:40:51.230Z,3.10
2023-04-20T13:43:23.476Z,3.10
2023-04-20T13:45:55.940Z,2.90
2023-04-20T13:48:28.176Z,3.20
2023-04-20T13:51:02.710Z,3.00
2023-04-20T13:53:35.721Z,2.90
2023-04-20T13:56:09.094Z,3.10
2023-04-20T13:58:41.075Z,2.70
2023-04-20T14:01:15.724Z,3.20
2023-04-20T14:03:47.853Z,2.80
2023-04-20T14:06:21.018Z,3.00
2023-04-20T14:08:53.107Z,3.10
2023-04-20T14:11:25.696Z,2.80
2023-04-20T14:13:57.692Z,2.60
2023-04-20T14:16:30.332Z,3.00
2023-04-20T14:19:03.055Z,3.20
2023-04-20T14:21:36.023Z,2.80
2023-04-20T14:24:08.605Z,2.90
2023-04-20T14:26:45.255Z,2.70
2023-04-20T14:29:20.231Z,3.40
2023-04-20T14:31:52.927Z,3.00
2023-04-20T14:34:25.627Z,3.00
2023-04-20T14:36:57.711Z,3.30
2023-04-20T14:39:32.034Z,3.00
2023-04-20T14:42:04.131Z,2.90
2023-04-20T14:44:36.323Z,3.00
2023-04-20T14:47:08.751Z,2.90
2023-04-20T14:49:41.105Z,3.40
2023-04-20T14:52:13.372Z,2.70
2023-04-20T14:54:46.195Z,3.30
2023-04-20T14:57:18.462Z,2.90
2023-04-20T14:59:50.546Z,3.30
2023-04-20T15:02:23.170Z,3.40
2023-04-20T15:04:55.570Z,3.60
2023-04-20T15:07:28.732Z,2.90
2023-04-20T15:10:05.850Z,2.80
2023-04-20T15:12:38.518Z,3.40
2023-04-20T15:15:12.310Z,3.40
2023-04-20T15:17:45.867Z,2.70
2023-04-20T15:20:18.419Z,3.60
2023-04-20T15:22:51.024Z,3.30
2023-04-20T15:25:23.605Z,3.30
2023-04-20T15:27:56.375Z,3.70
2023-04-20T15:30:28.848Z,3.50
2023-04-20T15:33:04.804Z,3.60
2023-04-20T15:35:37.872Z,3.50
2023-04-20T15:38:10.652Z,3.70
2023-04-20T15:40:43.244Z,3.20
2023-04-20T15:43:16.019Z,3.60
2023-04-20T15:45:48.211Z,3.20
2023-04-20T15:48:20.459Z,3.80
2023-04-20T15:50:54.537Z,3.60
2023-04-20T15:53:26.972Z,3.60
2023-04-20T15:55:59.213Z,3.90
2023-04-20T15:58:31.373Z,3.00
2023-04-20T16:01:04.033Z,3.80
2023-04-20T16:03:36.654Z,3.60
2023-04-20T16:06:09.545Z,3.50
2023-04-20T16:08:45.440Z,3.90
2023-04-20T16:11:18.644Z,3.50
2023-04-20T16:13:51.320Z,3.70
2023-04-20T16:16:23.247Z,3.50
2023-04-20T16:18:55.871Z,3.90
2023-04-20T16:21:28.230Z,4.20
2023-04-20T16:24:03.438Z,4.40
2023-04-20T16:26:36.276Z,3.90
2023-04-20T16:29:09.072Z,3.80
2023-04-20T16:31:42.085Z,4.50
2023-04-20T16:34:14.390Z,3.90
2023-04-20T16:36:46.619Z,4.00
2023-04-20T16:39:19.260Z,4.60
2023-04-20T16:41:51.533Z,4.50
2023-04-20T16:44:24.044Z,4.30
2023-04-20T16:46:56.195Z,3.90
2023-04-20T16:49:29.273Z,4.30
2023-04-20T16:52:04.626Z,4.50
2023-04-20T16:54:37.593Z,3.50
2023-04-20T16:57:10.068Z,4.30
2023-04-20T16:59:44.615Z,4.20
2023-04-20T17:02:18.280Z,5.00
2023-04-20T17:04:50.886Z,4.40
2023-04-20T17:07:23.222Z,4.80
2023-04-20T17:09:55.452Z,4.50
2023-04-20T17:12:27.954Z,4.80
2023-04-20T17:15:00.945Z,4.40
2023-04-20T17:17:35.068Z,4.40
2023-04-20T17:20:10.567Z,4.30
2023-04-20T17:22:42.720Z,4.60
2023-04-20T17:25:15.193Z,4.50
2023-04-20T17:27:47.348Z,4.30
2023-04-20T17:30:21.199Z,4.30
2023-04-20T17:32:54.185Z,3.70
2023-04-20T17:35:27.825Z,4.50
2023-04-20T17:38:01.177Z,4.00
2023-04-20T17:40:34.889Z,4.40
2023-04-20T17:43:07.055Z,4.60
2023-04-20T17:45:39.790Z,4.20
2023-04-20T17:48:12.098Z,4.40
2023-04-20T17:50:44.291Z,5.30
2023-04-20T17:53:16.418Z,4.20
2023-04-20T17:55:48.872Z,4.80
2023-04-20T17:58:20.932Z,5.30
2023-04-20T18:00:53.864Z,4.70
2023-04-20T18:03:26.713Z,5.00
2023-04-20T18:05:58.962Z,4.30
2023-04-20T18:08:31.478Z,4.70
2023-04-20T18:11:05.862Z,4.70
2023-04-20T18:13:38.353Z,4.60
2023-04-20T18:16:11.000Z,4.40
2023-04-20T18:18:43.524Z,5.40
2023-04-20T18:21:16.512Z,4.70
2023-04-20T18:23:49.304Z,4.70
2023-04-20T18:26:22.546Z,5.20
2023-04-20T18:28:54.743Z,4.80
2023-04-20T18:31:27.850Z,5.60
2023-04-20T18:34:03.103Z,5.40
2023-04-20T18:36:36.218Z,5.50
2023-04-20T18:39:09.740Z,5.30
2023-04-20T18:41:43.375Z,5.30
2023-04-20T18:44:16.131Z,5.00
2023-04-20T18:46:48.537Z,5.60
2023-04-20T18:49:20.757Z,4.70
2023-04-20T18:51:53.033Z,5.00
2023-04-20T18:54:25.362Z,5.20
2023-04-20T18:56:58.520Z,5.20
2023-04-20T18:59:31.343Z,5.40
2023-04-20T19:02:03.651Z,5.10
2023-04-20T19:04:36.403Z,5.30
2023-04-20T19:07:09.022Z,5.00
2023-04-20T19:09:41.071Z,5.20
2023-04-20T19:12:13.497Z,5.20
2023-04-20T19:14:49.000Z,4.80
2023-04-20T19:17:21.897Z,5.80
2023-04-20T19:19:55.492Z,5.40
2023-04-20T19:22:27.797Z,5.00
2023-04-20T19:25:00.025Z,5.50
2023-04-20T19:27:34.836Z,5.50
2023-04-20T19:30:08.547Z,5.60
2023-04-20T19:32:41.034Z,5.00
2023-04-20T19:35:13.135Z,5.30
2023-04-20T19:37:45.856Z,4.60
2023-04-20T19:40:19.921Z,4.60
2023-04-20T19:42:52.733Z,5.40
2023-04-20T19:45:28.826Z,5.10
2023-04-20T19:48:04.844Z,5.00
2023-04-20T19:50:37.132Z,5.70
2023-04-20T19:53:09.726Z,5.40
2023-04-20T19:55:42.094Z,4.90
2023-04-20T19:58:16.050Z,5.50
2023-04-20T20:00:48.572Z,5.50
2023-04-20T20:03:20.916Z,5.60
2023-04-20T20:05:53.082Z,5.40
2023-04-20T20:08:25.532Z,6.20
2023-04-20T20:10:58.080Z,6.00
2023-04-20T20:13:32.931Z,5.90
2023-04-20T20:16:05.555Z,5.70
2023-04-20T20:18:38.414Z,5.90
2023-04-20T20:21:10.934Z,5.50
2023-04-20T20:23:43.497Z,6.00
2023-04-20T20:26:16.675Z,5.90
2023-04-20T20:28:50.314Z,6.30
2023-04-20T20:31:22.468Z,5.60
2023-04-20T20:33:56.252Z,6.40
2023-04-20T20:36:32.161Z,7.80
2023-04-20T20:39:05.492Z,7.70
2023-04-20T20:41:37.637Z,6.50
2023-04-20T20:44:12.284Z,6.90
2023-04-20T20:46:44.688Z,6.60
2023-04-20T20:49:16.968Z,7.30
2023-04-20T20:51:49.150Z,6.50
2023-04-20T20:54:21.535Z,6.20
2023-04-20T20:56:53.552Z,7.00
2023-04-20T20:59:26.520Z,6.10
2023-04-20T21:01:58.950Z,5.80
2023-04-20T21:04:32.934Z,6.20
2023-04-20T21:07:05.183Z,6.20
2023-04-20T21:09:37.276Z,6.30
2023-04-20T21:12:09.624Z,5.60
2023-04-20T21:14:42.316Z,6.40
2023-04-20T21:17:14.466Z,6.20
2023-04-20T21:19:46.925Z,6.30
2023-04-20T21:22:20.226Z,5.90
2023-04-20T21:24:52.509Z,5.80
2023-04-20T21:27:25.023Z,6.00
2023-04-20T21:29:57.256Z,5.80
2023-04-20T21:32:29.690Z,6.00
2023-04-20T21:35:02.077Z,6.00
2023-04-20T21:37:34.225Z,4.70
2023-04-20T21:40:07.971Z,5.50
2023-04-20T21:42:40.184Z,6.20
2023-04-20T21:45:14.075Z,5.00
2023-04-20T21:47:46.252Z,6.00
2023-04-20T21:50:19.034Z,5.80
2023-04-20T21:52:51.384Z,5.70
2023-04-20T21:55:23.834Z,6.90
2023-04-20T21:57:56.049Z,5.90
2023-04-20T22:00:28.384Z,5.60
2023-04-20T22:03:03.287Z,5.90
2023-04-20T22:05:35.892Z,6.10
2023-04-20T22:08:07.964Z,5.90
2023-04-20T22:10:40.100Z,5.60
2023-04-20T22:13:13.470Z,6.20
2023-04-20T22:15:47.442Z,5.50
2023-04-20T22:18:19.765Z,5.60
2023-04-20T22:20:54.262Z,5.90
2023-04-20T22:23:27.158Z,6.00
2023-04-20T22:25:59.628Z,6.00
2023-04-20T22:28:33.111Z,5.60
2023-04-20T22:31:05.433Z,5.70
2023-04-20T22:33:37.693Z,5.80
2023-04-20T22:36:12.194Z,5.00
2023-04-20T22:38:44.283Z,5.40
2023-04-20T22:41:17.641Z,5.00
2023-04-20T22:43:49.995Z,5.20
2023-04-20T22:46:22.562Z,5.90
2023-04-20T22:48:56.792Z,5.70
2023-04-20T22:51:29.160Z,5.80
2023-04-20T22:54:02.798Z,5.30
2023-04-20T22:56:36.921Z,5.00
2023-04-20T22:59:09.429Z,5.50
2023-04-20T23:01:41.539Z,5.50
2023-04-20T23:04:13.852Z,5.60
2023-04-20T23:06:47.390Z,4.50
2023-04-20T23:09:20.957Z,6.20
2023-04-20T23:11:54.020Z,5.50
2023-04-20T23:14:26.156Z,5.40
2023-04-20T23:17:00.159Z,5.80
2023-04-20T23:19:34.772Z,4.80
2023-04-20T23:22:09.068Z,5.40
2023-04-20T23:24:41.407Z,5.90
2023-04-20T23:27:13.956Z,4.60
2023-04-20T23:29:46.083Z,5.20
2023-04-20T23:32:18.220Z,5.10
2023-04-20T23:34:50.679Z,5.30
2023-04-20T23:37:22.891Z,4.80
2023-04-20T23:39:55.027Z,5.00
2023-04-20T23:42:27.396Z,5.10
2023-04-20T23:44:59.872Z,4.60
2023-04-20T23:47:32.536Z,5.60
2023-04-20T23:50:05.059Z,5.10
2023-04-20T23:52:37.287Z,4.90
2023-04-20T23:55:10.907Z,4.70
2023-04-20T23:57:43.084Z,4.60
